Aviation Digital Data Service (ADDS)

Output produced by METARs form (1454 UTC 16 January 2018)
found at http://aviationweather.gov/adds/metars/
 
KAEX 161124Z 1612/1712 36014G20KT P6SM -RA OVC010 
     FM161400 36014G24KT P6SM -SNPL OVC008 
     TEMPO 1615/1619 3SM -SN OVC007 
     FM162000 36012G20KT P6SM OVC020 
     FM170000 36010KT P6SM OVC050